createdAt,value
2019-04-04T00:00:50.023Z,7.37
2019-04-04T00:03:22.014Z,8.23
2019-04-04T00:05:56.382Z,7.40
2019-04-04T00:08:30.750Z,7.43
2019-04-04T00:11:01.808Z,7.90
2019-04-04T00:13:33.810Z,7.83
2019-04-04T00:16:05.813Z,8.17
2019-04-04T00:18:37.763Z,7.50
2019-04-04T00:21:09.717Z,7.83
2019-04-04T00:23:41.768Z,7.60
2019-04-04T00:26:13.751Z,6.73
2019-04-04T00:28:46.102Z,7.30
2019-04-04T00:31:19.622Z,7.37
2019-04-04T00:33:51.775Z,7.67
2019-04-04T00:36:23.717Z,7.60
2019-04-04T00:38:55.655Z,6.33
2019-04-04T00:41:27.614Z,6.80
2019-04-04T00:43:59.585Z,6.80
2019-04-04T00:46:31.588Z,7.27
2019-04-04T00:49:04.939Z,6.87
2019-04-04T00:51:39.069Z,7.03
2019-04-04T00:54:12.069Z,6.20
2019-04-04T00:56:46.858Z,6.63
2019-04-04T00:59:39.549Z,6.63
2019-04-04T01:02:11.500Z,5.83
2019-04-04T01:04:43.439Z,5.53
2019-04-04T01:07:15.383Z,5.67
2019-04-04T01:09:47.916Z,6.33
2019-04-04T01:12:21.713Z,7.03
2019-04-04T01:14:55.015Z,7.23
2019-04-04T01:17:26.983Z,7.50
2019-04-04T01:19:59.004Z,7.20
2019-04-04T01:22:31.060Z,7.50
2019-04-04T01:25:03.263Z,8.47
2019-04-04T01:27:37.020Z,7.60
2019-04-04T01:30:11.759Z,8.03
2019-04-04T01:32:42.964Z,8.03
2019-04-04T01:35:14.883Z,7.73
2019-04-04T01:37:46.851Z,8.63
2019-04-04T01:40:18.778Z,8.10
2019-04-04T01:42:50.850Z,8.37
2019-04-04T01:45:22.796Z,8.10
2019-04-04T01:47:54.744Z,7.13
2019-04-04T01:50:26.728Z,7.03
2019-04-04T01:52:59.272Z,7.23
2019-04-04T01:55:32.929Z,7.30
2019-04-04T01:58:07.912Z,7.23
2019-04-04T02:00:40.548Z,7.63
2019-04-04T02:03:12.517Z,7.73
2019-04-04T02:05:44.522Z,7.70
2019-04-04T02:08:16.510Z,6.90
2019-04-04T02:10:48.494Z,7.80
2019-04-04T02:13:20.566Z,7.03
2019-04-04T02:15:52.566Z,6.90
2019-04-04T02:18:24.550Z,7.40
2019-04-04T02:20:57.847Z,6.10
2019-04-04T02:23:31.729Z,6.73
2019-04-04T02:26:05.144Z,7.07
2019-04-04T02:28:40.017Z,6.37
2019-04-04T02:34:06.528Z,5.97
2019-04-04T02:36:39.473Z,6.10
2019-04-04T02:39:52.329Z,6.37
2019-04-04T02:42:24.259Z,5.93
2019-04-04T02:44:56.259Z,5.97
2019-04-04T02:47:28.199Z,5.80
2019-04-04T02:50:01.085Z,5.60
2019-04-04T02:52:34.152Z,5.17
2019-04-04T02:55:06.126Z,5.90
2019-04-04T02:57:41.199Z,5.83
2019-04-04T03:00:12.130Z,5.57
2019-04-04T03:02:44.104Z,6.67
2019-04-04T03:05:18.787Z,6.00
2019-04-04T03:07:49.884Z,5.80
2019-04-04T03:10:21.850Z,6.37
2019-04-04T03:12:58.009Z,5.93
2019-04-04T03:15:27.746Z,7.07
2019-04-04T03:18:03.900Z,7.10
2019-04-04T03:20:33.582Z,7.37
2019-04-04T03:23:05.517Z,7.67
2019-04-04T03:25:37.576Z,7.00
2019-04-04T03:28:09.510Z,7.03
2019-04-04T03:30:41.630Z,6.90
2019-04-04T03:33:13.571Z,7.53
2019-04-04T03:35:45.528Z,8.20
2019-04-04T03:38:17.543Z,8.20
2019-04-04T03:40:49.559Z,7.50
2019-04-04T03:43:21.491Z,7.13
2019-04-04T03:45:53.482Z,8.60
2019-04-04T03:48:25.502Z,9.30
2019-04-04T03:50:57.884Z,9.27
2019-04-04T03:53:31.349Z,9.43
2019-04-04T03:56:03.376Z,9.83
2019-04-04T03:58:35.329Z,9.00
2019-04-04T04:01:11.948Z,9.83
2019-04-04T04:03:41.242Z,9.20
2019-04-04T04:06:13.273Z,10.70
2019-04-04T04:08:45.263Z,10.20
2019-04-04T04:11:17.233Z,10.00
2019-04-04T04:13:50.057Z,10.10
2019-04-04T04:16:23.127Z,10.37
2019-04-04T04:18:55.393Z,10.30
2019-04-04T04:21:29.054Z,10.60
2019-04-04T04:24:01.033Z,11.23
2019-04-04T04:26:33.032Z,11.13
2019-04-04T04:29:04.973Z,11.30
2019-04-04T04:31:36.955Z,12.23
2019-04-04T04:34:08.893Z,10.80
2019-04-04T04:36:40.866Z,11.57
2019-04-04T04:39:12.834Z,11.73
2019-04-04T04:41:44.810Z,12.43
2019-04-04T04:44:16.759Z,11.33
2019-04-04T04:46:50.445Z,13.17
2019-04-04T04:49:23.389Z,12.13
2019-04-04T04:51:56.521Z,13.00
2019-04-04T04:54:47.912Z,12.43
2019-04-04T04:57:29.388Z,12.70
2019-04-04T04:59:53.720Z,14.10
2019-04-04T05:02:25.786Z,12.90
2019-04-04T05:04:59.404Z,12.60
2019-04-04T05:07:31.656Z,13.27
2019-04-04T05:10:04.503Z,14.77
2019-04-04T05:12:36.472Z,12.20
2019-04-04T05:15:08.691Z,13.60
2019-04-04T05:17:42.052Z,12.83
2019-04-04T05:20:14.630Z,13.63
2019-04-04T05:22:46.886Z,13.23
2019-04-04T05:25:18.833Z,12.47
2019-04-04T05:27:50.802Z,13.07
2019-04-04T05:30:22.716Z,14.20
2019-04-04T05:32:56.499Z,14.60
2019-04-04T05:35:28.665Z,13.63
2019-04-04T05:38:00.670Z,14.33
2019-04-04T05:40:32.625Z,14.60
2019-04-04T05:43:04.917Z,14.53
2019-04-04T05:45:37.063Z,14.97
2019-04-04T05:48:09.055Z,14.30
2019-04-04T05:50:43.252Z,15.80
2019-04-04T05:53:14.877Z,14.23
2019-04-04T05:55:46.878Z,16.20
2019-04-04T05:58:21.779Z,14.93
2019-04-04T06:00:52.850Z,14.63
2019-04-04T06:03:24.809Z,15.60
2019-04-04T06:05:56.763Z,15.60
2019-04-04T06:08:28.843Z,17.13
2019-04-04T06:11:00.855Z,15.70
2019-04-04T06:13:32.796Z,15.50
2019-04-04T06:16:05.020Z,15.03
2019-04-04T06:18:37.004Z,16.00
2019-04-04T06:21:09.058Z,16.30
2019-04-04T06:23:41.009Z,16.90
2019-04-04T06:26:13.039Z,14.43
2019-04-04T06:28:45.042Z,16.67
2019-04-04T06:31:17.040Z,17.37
2019-04-04T06:33:49.069Z,18.40
2019-04-04T06:36:21.065Z,17.60
2019-04-04T06:38:53.955Z,17.90
2019-04-04T06:41:28.173Z,18.80
2019-04-04T06:44:00.427Z,18.53
2019-04-04T06:46:32.441Z,19.80
2019-04-04T06:49:05.109Z,17.97
2019-04-04T06:51:37.161Z,17.30
2019-04-04T06:54:09.127Z,18.67
2019-04-04T06:56:41.098Z,17.43
2019-04-04T06:59:13.032Z,17.97
2019-04-04T07:01:44.997Z,17.50
2019-04-04T07:04:17.424Z,18.57
2019-04-04T07:06:49.446Z,21.37
2019-04-04T07:09:21.413Z,21.63
2019-04-04T07:11:53.679Z,21.43
2019-04-04T07:14:25.659Z,21.13
2019-04-04T07:16:57.722Z,21.43
2019-04-04T07:19:29.889Z,22.80
2019-04-04T07:22:01.854Z,23.50
2019-04-04T07:24:33.797Z,22.43
2019-04-04T07:27:05.783Z,23.27
2019-04-04T07:29:37.771Z,24.53
2019-04-04T07:32:10.212Z,23.13
2019-04-04T07:34:45.072Z,21.57
2019-04-04T07:37:16.218Z,20.23
2019-04-04T07:39:50.095Z,19.63
2019-04-04T07:42:22.042Z,21.97
2019-04-04T07:44:55.071Z,20.83
2019-04-04T07:47:27.135Z,16.77
2019-04-04T07:49:59.125Z,16.93
2019-04-04T07:52:32.991Z,19.37
2019-04-04T07:55:05.642Z,17.17
2019-04-04T07:57:37.615Z,17.87
2019-04-04T08:00:10.900Z,17.33
2019-04-04T08:02:42.870Z,18.63
2019-04-04T08:05:14.840Z,17.73
2019-04-04T08:07:46.878Z,18.30
2019-04-04T08:10:20.754Z,18.27
2019-04-04T08:12:52.801Z,17.23
2019-04-04T08:15:24.823Z,16.87
2019-04-04T08:17:56.767Z,15.70
2019-04-04T08:20:28.786Z,14.97
2019-04-04T08:23:00.788Z,15.33
2019-04-04T08:25:32.793Z,15.93
2019-04-04T08:28:04.711Z,15.57
2019-04-04T08:30:36.799Z,16.10
2019-04-04T08:33:08.973Z,17.10
2019-04-04T08:35:40.956Z,16.30
2019-04-04T08:38:13.046Z,16.27
2019-04-04T08:40:46.352Z,16.07
2019-04-04T08:43:18.377Z,15.13
2019-04-04T08:45:50.354Z,15.67
2019-04-04T08:48:22.301Z,15.87
2019-04-04T08:50:54.301Z,15.87
2019-04-04T08:53:38.904Z,15.20
2019-04-04T08:56:00.116Z,15.43
2019-04-04T08:58:32.101Z,15.00
2019-04-04T09:01:04.466Z,16.73
2019-04-04T09:03:36.423Z,16.80
2019-04-04T09:06:08.400Z,14.97
2019-04-04T09:08:40.363Z,16.87
2019-04-04T09:11:12.367Z,16.60
2019-04-04T09:13:44.386Z,15.80
2019-04-04T09:16:16.414Z,16.47
2019-04-04T09:18:48.369Z,16.40
2019-04-04T09:21:20.337Z,16.47
2019-04-04T09:23:52.304Z,14.87
2019-04-04T09:26:24.307Z,14.50
2019-04-04T09:28:56.270Z,15.07
2019-04-04T09:31:28.246Z,15.57
2019-04-04T09:34:00.189Z,14.93
2019-04-04T09:36:32.191Z,14.13
2019-04-04T09:39:05.962Z,14.50
2019-04-04T09:41:38.072Z,13.57
2019-04-04T09:44:10.126Z,14.00
2019-04-04T09:46:42.220Z,14.20
2019-04-04T09:49:14.246Z,12.77
2019-04-04T09:51:46.217Z,14.77
2019-04-04T09:54:19.458Z,12.67
2019-04-04T09:56:51.704Z,12.30
2019-04-04T09:59:23.670Z,12.20
2019-04-04T10:01:55.620Z,12.40
2019-04-04T10:04:27.557Z,13.20
2019-04-04T10:06:59.560Z,11.87
2019-04-04T10:09:31.615Z,12.10
2019-04-04T10:12:03.753Z,11.17
2019-04-04T10:14:35.726Z,11.10
2019-04-04T10:17:07.720Z,11.47
2019-04-04T10:19:39.692Z,12.60
2019-04-04T10:22:11.705Z,12.77
2019-04-04T10:24:44.128Z,13.53
2019-04-04T10:27:16.156Z,13.40
2019-04-04T10:29:48.118Z,12.20
2019-04-04T10:32:20.115Z,12.00
2019-04-04T10:34:52.139Z,11.83
2019-04-04T10:37:24.104Z,10.43
2019-04-04T10:39:56.105Z,10.40
2019-04-04T10:42:28.291Z,10.20
2019-04-04T10:45:00.284Z,11.13
2019-04-04T10:47:32.284Z,11.20
2019-04-04T10:50:04.891Z,11.30
2019-04-04T10:52:36.896Z,12.23
2019-04-04T10:55:08.834Z,12.73
2019-04-04T10:57:40.863Z,11.87
2019-04-04T11:00:13.213Z,12.20
2019-04-04T11:02:45.240Z,10.90
2019-04-04T11:05:17.262Z,10.87
2019-04-04T11:07:51.013Z,11.10
2019-04-04T11:10:23.045Z,10.40
2019-04-04T11:12:55.005Z,10.80
2019-04-04T11:15:27.056Z,11.53
2019-04-04T11:17:59.227Z,10.40
2019-04-04T11:20:31.245Z,10.30
2019-04-04T11:23:03.178Z,10.10
2019-04-04T11:25:35.194Z,10.40
2019-04-04T11:28:07.199Z,10.70
2019-04-04T11:30:39.261Z,11.43
2019-04-04T11:33:11.257Z,11.63
2019-04-04T11:35:43.333Z,11.40
2019-04-04T11:38:15.366Z,11.30
2019-04-04T11:40:49.172Z,10.43
2019-04-04T11:43:21.128Z,12.37
2019-04-04T11:45:54.942Z,11.83
2019-04-04T11:48:26.978Z,10.67
2019-04-04T11:50:58.986Z,11.63
2019-04-04T11:53:31.118Z,10.87
2019-04-04T11:56:03.267Z,11.40
2019-04-04T11:58:35.287Z,11.17
2019-04-04T12:01:08.828Z,10.27
2019-04-04T12:03:40.821Z,12.40
2019-04-04T12:06:12.854Z,13.40
2019-04-04T12:08:44.839Z,15.10
2019-04-04T12:11:16.847Z,16.00
2019-04-04T12:13:50.530Z,16.03
2019-04-04T12:16:22.729Z,17.67
2019-04-04T12:18:54.901Z,16.60
2019-04-04T12:21:26.907Z,18.53
2019-04-04T12:23:58.890Z,17.17
2019-04-04T12:26:30.916Z,18.30
2019-04-04T12:29:02.933Z,19.53
2019-04-04T12:31:34.953Z,17.93
2019-04-04T12:34:06.907Z,18.13
2019-04-04T12:36:38.923Z,19.00
2019-04-04T12:39:12.096Z,17.80
2019-04-04T12:41:44.250Z,18.03
2019-04-04T12:44:16.238Z,19.10
2019-04-04T12:46:48.244Z,19.00
2019-04-04T12:49:20.244Z,16.10
2019-04-04T12:51:52.363Z,14.93
2019-04-04T12:54:25.831Z,12.93
2019-04-04T12:56:57.830Z,12.87
2019-04-04T12:59:29.840Z,12.93
2019-04-04T13:02:01.875Z,13.13
2019-04-04T13:04:33.854Z,12.60
2019-04-04T13:07:05.829Z,11.07
2019-04-04T13:09:37.798Z,11.03
2019-04-04T13:12:10.391Z,10.67
2019-04-04T13:14:42.608Z,9.60
2019-04-04T13:17:15.947Z,11.30
2019-04-04T13:19:47.951Z,9.87
2019-04-04T13:22:20.042Z,9.83
2019-04-04T13:24:52.006Z,10.70
2019-04-04T13:27:24.079Z,9.63
2019-04-04T13:29:56.063Z,9.70
2019-04-04T13:32:30.776Z,8.77
2019-04-04T13:35:05.678Z,8.57
2019-04-04T13:37:38.304Z,7.83
2019-04-04T13:40:10.691Z,7.93
2019-04-04T13:42:42.917Z,7.30
2019-04-04T13:45:14.892Z,8.23
2019-04-04T13:47:47.157Z,8.03
2019-04-04T13:50:20.430Z,7.40
2019-04-04T13:52:52.758Z,7.23
2019-04-04T13:55:27.023Z,7.60
2019-04-04T13:57:58.865Z,7.57
2019-04-04T14:00:31.363Z,7.43
2019-04-04T14:03:03.492Z,7.83
2019-04-04T14:05:35.665Z,7.87
2019-04-04T14:08:07.643Z,8.03
2019-04-04T14:10:39.791Z,7.83
2019-04-04T14:13:12.001Z,8.07
2019-04-04T14:15:45.903Z,9.50
2019-04-04T14:18:24.656Z,9.00
2019-04-04T14:21:03.340Z,7.60
2019-04-04T14:23:30.577Z,8.50
2019-04-04T14:26:05.506Z,9.13
2019-04-04T14:28:37.568Z,8.53
2019-04-04T14:31:09.872Z,9.20
2019-04-04T14:33:42.043Z,9.00
2019-04-04T14:36:14.337Z,8.57
2019-04-04T14:38:46.320Z,8.27
2019-04-04T14:41:18.447Z,8.47
2019-04-04T14:43:50.475Z,8.07
2019-04-04T14:46:22.482Z,10.60
2019-04-04T14:48:54.487Z,8.77
2019-04-04T14:51:26.488Z,8.27
2019-04-04T14:53:58.493Z,8.70
2019-04-04T14:56:30.510Z,10.07
2019-04-04T14:59:02.534Z,11.23
2019-04-04T15:01:35.200Z,10.80
2019-04-04T15:04:07.472Z,10.60
2019-04-04T15:06:39.496Z,11.27
2019-04-04T15:09:11.463Z,9.97
2019-04-04T15:11:43.488Z,12.50
2019-04-04T15:14:15.463Z,10.47
2019-04-04T15:16:49.334Z,11.20
2019-04-04T15:19:21.306Z,12.03
2019-04-04T15:21:53.364Z,12.43
2019-04-04T15:24:25.558Z,11.63
2019-04-04T15:26:57.577Z,12.43
2019-04-04T15:29:29.594Z,14.30
2019-04-04T15:32:01.575Z,12.60
2019-04-04T15:34:33.591Z,13.07
2019-04-04T15:37:05.696Z,13.30
2019-04-04T15:39:37.675Z,12.90
2019-04-04T15:42:09.730Z,11.90
2019-04-04T15:44:41.788Z,13.10
2019-04-04T15:47:13.800Z,11.30
2019-04-04T15:49:45.896Z,11.33
2019-04-04T15:52:17.997Z,13.70
2019-04-04T15:54:50.096Z,25.23
2019-04-04T15:57:22.106Z,16.07
2019-04-04T15:59:54.238Z,19.73
2019-04-04T16:02:26.245Z,12.03
2019-04-04T16:04:58.468Z,14.17
2019-04-04T16:07:30.565Z,12.13
2019-04-04T16:10:03.152Z,10.27
2019-04-04T16:12:35.147Z,9.70
2019-04-04T16:15:07.195Z,10.50
2019-04-04T16:17:39.492Z,10.90
2019-04-04T16:20:11.932Z,10.60
2019-04-04T16:22:43.965Z,10.90
2019-04-04T16:25:17.790Z,15.67
2019-04-04T16:27:49.782Z,10.67
2019-04-04T16:30:21.829Z,9.27
2019-04-04T16:32:53.838Z,8.97
2019-04-04T16:35:25.863Z,8.37
2019-04-04T16:37:57.946Z,8.77
2019-04-04T16:40:30.055Z,10.97
2019-04-04T16:43:02.081Z,9.87
2019-04-04T16:45:34.280Z,9.23
2019-04-04T16:48:06.350Z,8.67
2019-04-04T16:50:38.465Z,10.10
2019-04-04T16:53:10.471Z,11.37
2019-04-04T16:55:42.555Z,10.53
2019-04-04T16:58:14.548Z,9.93
2019-04-04T17:00:46.753Z,9.57
2019-04-04T17:03:20.450Z,10.30
2019-04-04T17:05:52.661Z,11.73
2019-04-04T17:08:24.685Z,13.93
2019-04-04T17:10:56.769Z,11.13
2019-04-04T17:13:28.765Z,11.03
2019-04-04T17:16:01.038Z,9.97
2019-04-04T17:18:33.073Z,11.70
2019-04-04T17:21:05.047Z,11.47
2019-04-04T17:23:37.050Z,12.13
2019-04-04T17:26:09.172Z,10.70
2019-04-04T17:28:41.197Z,11.13
2019-04-04T17:31:13.516Z,11.30
2019-04-04T17:33:45.874Z,11.20
2019-04-04T17:36:21.277Z,11.40
2019-04-04T17:38:55.050Z,11.03
2019-04-04T17:41:27.605Z,13.53
2019-04-04T17:43:59.947Z,10.77
2019-04-04T17:46:32.244Z,10.97
2019-04-04T17:49:04.372Z,9.90
2019-04-04T17:51:36.619Z,11.13
2019-04-04T17:54:08.835Z,11.80
2019-04-04T17:56:40.983Z,11.77
2019-04-04T17:59:13.156Z,11.03
2019-04-04T18:01:45.272Z,10.53
2019-04-04T18:04:17.395Z,9.30
2019-04-04T18:06:49.532Z,10.00
2019-04-04T18:09:31.172Z,9.57
2019-04-04T18:11:55.657Z,10.37
2019-04-04T18:14:27.704Z,12.43
2019-04-04T18:16:59.805Z,10.67
2019-04-04T18:19:32.053Z,10.50
2019-04-04T18:22:04.241Z,13.63
2019-04-04T18:24:36.365Z,11.50
2019-04-04T18:27:08.438Z,21.07
2019-04-04T18:29:40.568Z,29.27
2019-04-04T18:32:12.740Z,20.87
2019-04-04T18:34:45.268Z,19.87
2019-04-04T18:37:18.524Z,22.90
2019-04-04T18:39:50.807Z,15.43
2019-04-04T18:42:23.124Z,12.53
2019-04-04T18:44:55.255Z,11.77
2019-04-04T18:47:27.414Z,10.67
2019-04-04T18:49:59.705Z,10.10
2019-04-04T18:52:31.838Z,15.10
2019-04-04T18:55:04.524Z,19.27
2019-04-04T18:57:36.584Z,7.17
2019-04-04T19:00:08.762Z,7.07
2019-04-04T19:02:41.111Z,6.90
2019-04-04T19:05:13.383Z,6.47
2019-04-04T19:07:45.371Z,6.90
2019-04-04T19:10:17.856Z,6.50
2019-04-04T19:12:50.047Z,6.20
2019-04-04T19:15:22.135Z,5.43
2019-04-04T19:17:56.176Z,5.97
2019-04-04T19:20:28.414Z,6.20
2019-04-04T19:23:00.564Z,6.00
2019-04-04T19:25:32.873Z,6.93
2019-04-04T19:28:04.888Z,7.30
2019-04-04T19:30:37.034Z,7.50
2019-04-04T19:33:10.843Z,7.70
2019-04-04T19:35:42.943Z,7.50
2019-04-04T19:38:15.098Z,7.80
2019-04-04T19:40:47.160Z,7.77
2019-04-04T19:43:19.334Z,8.43
2019-04-04T19:45:51.491Z,8.17
2019-04-04T19:48:23.625Z,8.37
2019-04-04T19:50:55.674Z,8.50
2019-04-04T19:53:27.731Z,9.50
2019-04-04T19:55:59.844Z,8.60
2019-04-04T19:58:32.022Z,8.37
2019-04-04T20:01:04.638Z,8.47
2019-04-04T20:03:36.640Z,9.83
2019-04-04T20:06:08.700Z,10.77
2019-04-04T20:08:40.735Z,8.83
2019-04-04T20:11:13.155Z,11.50
2019-04-04T20:13:45.161Z,9.73
2019-04-04T20:16:17.478Z,10.07
2019-04-04T20:18:49.718Z,15.03
2019-04-04T20:21:21.931Z,14.17
2019-04-04T20:23:54.042Z,12.23
2019-04-04T20:26:26.228Z,11.27
2019-04-04T20:28:58.310Z,11.00
2019-04-04T20:31:30.521Z,9.97
2019-04-04T20:34:05.835Z,10.83
2019-04-04T20:36:36.461Z,9.87
2019-04-04T20:39:08.706Z,9.20
2019-04-04T20:41:41.954Z,9.23
2019-04-04T20:44:14.055Z,9.77
2019-04-04T20:46:47.934Z,11.40
2019-04-04T20:49:20.112Z,11.80
2019-04-04T20:51:52.188Z,10.70
2019-04-04T20:54:24.199Z,12.30
2019-04-04T20:56:56.440Z,10.40
2019-04-04T20:59:29.616Z,10.77
2019-04-04T21:02:02.773Z,10.17
2019-04-04T21:04:34.891Z,9.87
2019-04-04T21:07:07.047Z,9.47
2019-04-04T21:09:39.087Z,11.00
2019-04-04T21:12:11.539Z,11.50
2019-04-04T21:14:43.659Z,10.90
2019-04-04T21:17:16.162Z,10.33
2019-04-04T21:19:48.192Z,10.13
2019-04-04T21:22:27.458Z,11.07
2019-04-04T21:24:54.159Z,10.73
2019-04-04T21:27:26.237Z,11.60
2019-04-04T21:29:58.490Z,11.03
2019-04-04T21:32:30.488Z,11.97
2019-04-04T21:35:03.039Z,10.43
2019-04-04T21:37:35.059Z,12.90
2019-04-04T21:40:07.081Z,12.67
2019-04-04T21:42:39.089Z,13.43
2019-04-04T21:45:11.076Z,11.77
2019-04-04T21:47:42.999Z,13.00
2019-04-04T21:50:14.971Z,12.60
2019-04-04T21:52:46.962Z,13.73
2019-04-04T21:55:19.332Z,12.50
2019-04-04T21:57:51.366Z,12.83
2019-04-04T22:00:25.488Z,12.57
2019-04-04T22:02:57.688Z,11.83
2019-04-04T22:05:29.701Z,12.87
2019-04-04T22:08:01.763Z,12.00
2019-04-04T22:10:33.716Z,12.50
2019-04-04T22:13:05.749Z,11.87
2019-04-04T22:15:38.130Z,12.27
2019-04-04T22:18:10.129Z,11.63
2019-04-04T22:20:42.347Z,12.53
2019-04-04T22:23:14.342Z,12.17
2019-04-04T22:25:46.579Z,12.20
2019-04-04T22:28:18.569Z,11.17
2019-04-04T22:30:52.302Z,12.87
2019-04-04T22:33:24.234Z,11.90
2019-04-04T22:35:58.383Z,13.03
2019-04-04T22:38:30.465Z,12.20
2019-04-04T22:41:02.430Z,12.73
2019-04-04T22:43:34.417Z,12.03
2019-04-04T22:46:06.372Z,12.70
2019-04-04T22:48:38.348Z,12.50
2019-04-04T22:51:10.686Z,12.80
2019-04-04T22:53:44.422Z,11.93
2019-04-04T22:56:16.400Z,10.83
2019-04-04T22:58:48.480Z,13.37
2019-04-04T23:01:22.238Z,11.77
2019-04-04T23:03:54.180Z,12.17
2019-04-04T23:06:26.124Z,12.20
2019-04-04T23:08:58.065Z,12.87
2019-04-04T23:11:30.073Z,13.20
2019-04-04T23:14:02.036Z,13.00
2019-04-04T23:16:33.991Z,12.20
2019-04-04T23:19:06.005Z,13.00
2019-04-04T23:21:37.973Z,13.17
2019-04-04T23:24:09.962Z,12.87
2019-04-04T23:26:41.946Z,12.47
2019-04-04T23:29:13.863Z,12.57
2019-04-04T23:31:45.798Z,11.87
2019-04-04T23:34:17.734Z,12.00
2019-04-04T23:36:49.650Z,13.03
2019-04-04T23:39:21.600Z,13.27
2019-04-04T23:41:53.525Z,13.07
2019-04-04T23:44:25.453Z,13.37
2019-04-04T23:46:57.373Z,13.43
2019-04-04T23:49:29.320Z,14.23
2019-04-04T23:52:01.252Z,13.13
2019-04-04T23:54:33.304Z,13.77
2019-04-04T23:57:05.240Z,13.03
2019-04-04T23:59:37.179Z,13.93
